createdAt,value
2017-10-18T00:00:50.085Z,8.60
2017-10-18T00:03:17.689Z,8.37
2017-10-18T00:05:45.284Z,7.70
2017-10-18T00:08:12.913Z,8.27
2017-10-18T00:10:40.549Z,7.77
2017-10-18T00:13:08.143Z,8.70
2017-10-18T00:15:35.791Z,7.60
2017-10-18T00:18:03.391Z,7.87
2017-10-18T00:20:30.994Z,8.80
2017-10-18T00:22:58.635Z,7.93
2017-10-18T00:25:26.285Z,8.20
2017-10-18T00:27:53.888Z,7.63
2017-10-18T00:30:21.576Z,7.63
2017-10-18T00:32:49.171Z,7.80
2017-10-18T00:35:16.820Z,7.00
2017-10-18T00:37:44.420Z,7.70
2017-10-18T00:40:12.017Z,7.40
2017-10-18T00:42:40.421Z,7.47
2017-10-18T00:45:08.776Z,6.57
2017-10-18T00:47:36.422Z,6.80
2017-10-18T00:50:04.035Z,6.67
2017-10-18T00:52:31.674Z,6.93
2017-10-18T00:55:00.038Z,7.17
2017-10-18T00:57:27.681Z,7.33
2017-10-18T00:59:55.216Z,6.77
2017-10-18T01:02:22.865Z,6.30
2017-10-18T01:04:50.547Z,6.10
2017-10-18T01:07:18.217Z,6.00
2017-10-18T01:09:45.837Z,5.83
2017-10-18T01:12:13.511Z,7.07
2017-10-18T01:14:41.133Z,7.10
2017-10-18T01:17:09.529Z,6.00
2017-10-18T01:19:38.072Z,5.50
2017-10-18T01:22:05.691Z,6.30
2017-10-18T01:24:33.355Z,5.87
2017-10-18T01:27:01.045Z,5.70
2017-10-18T01:29:28.714Z,5.77
2017-10-18T01:31:56.573Z,4.73
2017-10-18T01:34:24.237Z,5.33
2017-10-18T01:36:52.000Z,5.07
2017-10-18T01:39:19.661Z,3.93
2017-10-18T01:41:47.284Z,5.00
2017-10-18T01:44:15.713Z,5.00
2017-10-18T01:46:43.337Z,4.83
2017-10-18T01:49:11.010Z,4.47
2017-10-18T01:51:38.627Z,5.37
2017-10-18T01:54:06.244Z,4.60
2017-10-18T01:56:33.913Z,5.77
2017-10-18T01:59:01.547Z,6.83
2017-10-18T02:01:29.212Z,5.83
2017-10-18T02:03:56.836Z,17.70
2017-10-18T02:06:24.512Z,10.80
2017-10-18T02:08:52.962Z,10.80
2017-10-18T02:11:20.640Z,11.50
2017-10-18T02:13:48.272Z,8.27
2017-10-18T02:16:15.933Z,5.77
2017-10-18T02:18:43.729Z,4.60
2017-10-18T02:21:12.220Z,4.37
2017-10-18T02:23:40.604Z,4.83
2017-10-18T02:26:09.035Z,4.70
2017-10-18T02:28:36.653Z,4.30
2017-10-18T02:31:05.638Z,5.63
2017-10-18T02:33:34.069Z,5.00
2017-10-18T02:36:01.750Z,4.73
2017-10-18T02:38:29.412Z,4.63
2017-10-18T02:40:57.059Z,3.90
2017-10-18T02:43:24.839Z,4.07
2017-10-18T02:45:53.227Z,3.93
2017-10-18T02:48:20.894Z,3.63
2017-10-18T02:50:48.523Z,4.30
2017-10-18T02:53:17.028Z,3.77
2017-10-18T02:55:45.210Z,2.40
2017-10-18T02:58:12.882Z,2.23
2017-10-18T03:00:40.501Z,1.93
2017-10-18T03:03:08.272Z,1.60
2017-10-18T03:05:35.891Z,2.20
2017-10-18T03:08:04.320Z,3.27
2017-10-18T03:10:31.939Z,3.30
2017-10-18T03:12:59.607Z,3.20
2017-10-18T03:15:27.276Z,3.57
2017-10-18T03:17:54.980Z,2.57
2017-10-18T03:20:22.685Z,2.97
2017-10-18T03:22:51.070Z,3.87
2017-10-18T03:25:18.768Z,4.70
2017-10-18T03:27:46.435Z,4.13
2017-10-18T03:30:14.062Z,3.63
2017-10-18T03:32:41.732Z,3.53
2017-10-18T03:35:09.402Z,3.23
2017-10-18T03:37:37.068Z,4.20
2017-10-18T03:40:04.756Z,3.40
2017-10-18T03:42:32.375Z,4.80
2017-10-18T03:45:00.031Z,3.83
2017-10-18T03:47:27.644Z,5.03
2017-10-18T03:49:55.563Z,4.00
2017-10-18T03:52:23.187Z,4.00
2017-10-18T03:54:50.938Z,4.00
2017-10-18T03:57:18.936Z,4.53
2017-10-18T03:59:47.343Z,4.90
2017-10-18T04:02:14.957Z,5.10
2017-10-18T04:04:42.625Z,3.30
2017-10-18T04:07:10.255Z,3.57
2017-10-18T04:09:37.871Z,4.03
2017-10-18T04:12:06.300Z,4.10
2017-10-18T04:14:33.911Z,3.77
2017-10-18T04:17:02.442Z,4.20
2017-10-18T04:19:30.107Z,4.00
2017-10-18T04:21:58.435Z,4.50
2017-10-18T04:24:27.055Z,3.80
2017-10-18T04:26:54.723Z,4.10
2017-10-18T04:29:22.335Z,4.00
2017-10-18T04:31:51.003Z,4.17
2017-10-18T04:34:18.623Z,4.10
2017-10-18T04:36:46.301Z,3.70
2017-10-18T04:39:13.912Z,4.40
2017-10-18T04:41:42.298Z,3.90
2017-10-18T04:44:10.004Z,3.90
2017-10-18T04:46:37.666Z,3.83
2017-10-18T04:49:05.336Z,4.33
2017-10-18T04:51:32.951Z,4.10
2017-10-18T04:54:01.330Z,4.37
2017-10-18T04:56:29.763Z,4.60
2017-10-18T04:58:57.381Z,4.73
2017-10-18T05:01:25.183Z,3.97
2017-10-18T05:03:52.847Z,4.27
2017-10-18T05:06:20.470Z,4.47
2017-10-18T05:08:48.089Z,4.07
2017-10-18T05:11:15.767Z,5.33
2017-10-18T05:13:44.216Z,4.40
2017-10-18T05:16:11.902Z,3.93
2017-10-18T05:18:39.527Z,3.80
2017-10-18T05:21:07.143Z,4.37
2017-10-18T05:23:35.644Z,4.33
2017-10-18T05:26:03.255Z,4.00
2017-10-18T05:28:31.728Z,3.90
2017-10-18T05:30:59.353Z,4.27
2017-10-18T05:33:26.972Z,4.37
2017-10-18T05:35:54.658Z,4.07
2017-10-18T05:38:22.480Z,4.27
2017-10-18T05:40:50.092Z,3.53
2017-10-18T05:43:18.433Z,3.50
2017-10-18T05:45:46.285Z,4.27
2017-10-18T05:48:13.908Z,4.63
2017-10-18T05:50:41.579Z,4.20
2017-10-18T05:53:09.194Z,4.60
2017-10-18T05:55:37.666Z,5.60
2017-10-18T05:58:05.292Z,5.30
2017-10-18T06:00:32.959Z,5.73
2017-10-18T06:03:00.581Z,5.00
2017-10-18T06:05:28.252Z,5.37
2017-10-18T06:07:55.871Z,4.83
2017-10-18T06:10:23.532Z,5.10
2017-10-18T06:12:51.153Z,4.70
2017-10-18T06:15:18.820Z,4.20
2017-10-18T06:17:46.442Z,4.30
2017-10-18T06:20:14.900Z,4.00
2017-10-18T06:22:42.521Z,4.40
2017-10-18T06:25:10.221Z,4.80
2017-10-18T06:27:37.960Z,4.57
2017-10-18T06:30:05.577Z,4.73
2017-10-18T06:32:34.121Z,5.20
2017-10-18T06:35:01.763Z,4.97
2017-10-18T06:37:29.636Z,5.07
2017-10-18T06:39:57.401Z,5.80
2017-10-18T06:42:25.077Z,6.43
2017-10-18T06:44:52.694Z,6.20
2017-10-18T06:47:20.401Z,5.30
2017-10-18T06:49:48.050Z,5.63
2017-10-18T06:52:15.711Z,5.90
2017-10-18T06:54:43.374Z,6.73
2017-10-18T06:57:11.039Z,5.60
2017-10-18T06:59:38.675Z,6.00
2017-10-18T07:02:06.356Z,6.57
2017-10-18T07:04:33.986Z,5.70
2017-10-18T07:07:01.652Z,5.60
2017-10-18T07:09:29.287Z,6.73
2017-10-18T07:11:56.911Z,6.47
2017-10-18T07:14:24.573Z,5.90
2017-10-18T07:16:52.197Z,5.80
2017-10-18T07:19:20.476Z,7.30
2017-10-18T07:21:48.693Z,6.97
2017-10-18T07:24:16.355Z,6.57
2017-10-18T07:26:43.979Z,6.67
2017-10-18T07:29:11.648Z,6.63
2017-10-18T07:31:39.287Z,6.77
2017-10-18T07:34:07.726Z,6.80
2017-10-18T07:36:35.358Z,6.77
2017-10-18T07:39:03.019Z,6.73
2017-10-18T07:41:30.642Z,5.80
2017-10-18T07:43:59.072Z,5.80
2017-10-18T07:46:26.694Z,6.20
2017-10-18T07:48:55.128Z,7.00
2017-10-18T07:51:22.759Z,7.00
2017-10-18T07:53:50.421Z,7.47
2017-10-18T07:56:18.038Z,6.77
2017-10-18T07:58:46.490Z,6.93
2017-10-18T08:01:14.271Z,5.70
2017-10-18T08:03:41.936Z,6.80
2017-10-18T08:06:09.927Z,6.53
2017-10-18T08:08:38.367Z,5.57
2017-10-18T08:11:06.004Z,7.10
2017-10-18T08:13:33.678Z,7.27
2017-10-18T08:16:01.308Z,7.07
2017-10-18T08:18:28.972Z,6.77
2017-10-18T08:20:56.597Z,6.50
2017-10-18T08:23:24.260Z,6.07
2017-10-18T08:25:53.395Z,6.03
2017-10-18T08:28:21.093Z,6.33
2017-10-18T08:30:48.746Z,6.10
2017-10-18T08:33:16.416Z,5.83
2017-10-18T08:35:44.035Z,6.90
2017-10-18T08:38:12.594Z,6.50
2017-10-18T08:40:41.000Z,6.30
2017-10-18T08:43:09.444Z,6.33
2017-10-18T08:45:37.072Z,5.77
2017-10-18T08:48:04.694Z,6.50
2017-10-18T08:50:33.129Z,6.70
2017-10-18T08:53:00.803Z,6.63
2017-10-18T08:55:28.467Z,6.33
2017-10-18T08:57:56.086Z,6.60
2017-10-18T09:00:23.752Z,6.23
2017-10-18T09:02:51.376Z,7.00
2017-10-18T09:05:19.808Z,6.90
2017-10-18T09:07:47.430Z,6.83
2017-10-18T09:10:15.860Z,7.00
2017-10-18T09:12:43.987Z,7.27
2017-10-18T09:15:12.419Z,7.97
2017-10-18T09:17:40.049Z,8.50
2017-10-18T09:20:07.710Z,8.13
2017-10-18T09:22:35.418Z,8.07
2017-10-18T09:25:03.776Z,8.37
2017-10-18T09:27:31.397Z,9.53
2017-10-18T09:29:59.921Z,8.00
2017-10-18T09:32:27.549Z,10.23
2017-10-18T09:34:55.219Z,10.50
2017-10-18T09:37:22.908Z,8.73
2017-10-18T09:39:50.573Z,10.87
2017-10-18T09:42:18.195Z,10.00
2017-10-18T09:44:45.859Z,10.33
2017-10-18T09:47:13.485Z,9.10
2017-10-18T09:49:41.158Z,9.80
2017-10-18T09:52:09.575Z,10.93
2017-10-18T09:54:37.208Z,10.93
2017-10-18T09:57:05.639Z,10.90
2017-10-18T09:59:33.306Z,11.70
2017-10-18T10:02:00.988Z,11.83
2017-10-18T10:04:30.000Z,12.03
2017-10-18T10:06:58.439Z,14.50
2017-10-18T10:09:26.074Z,13.43
2017-10-18T10:11:53.753Z,12.90
2017-10-18T10:14:21.376Z,11.63
2017-10-18T10:16:49.812Z,12.77
2017-10-18T10:19:18.200Z,13.67
2017-10-18T10:21:45.887Z,13.37
2017-10-18T10:24:14.281Z,12.87
2017-10-18T10:26:42.712Z,13.37
2017-10-18T10:29:10.336Z,12.60
2017-10-18T10:31:38.049Z,13.10
2017-10-18T10:34:05.669Z,14.67
2017-10-18T10:36:34.072Z,13.30
2017-10-18T10:39:01.736Z,13.50
2017-10-18T10:41:29.352Z,13.73
2017-10-18T10:43:57.781Z,14.57
2017-10-18T10:46:25.413Z,13.50
2017-10-18T10:48:53.081Z,15.33
2017-10-18T10:51:20.708Z,13.07
2017-10-18T10:53:49.144Z,14.67
2017-10-18T10:56:16.766Z,14.13
2017-10-18T10:58:44.438Z,14.83
2017-10-18T11:01:12.065Z,15.27
2017-10-18T11:03:40.513Z,14.40
2017-10-18T11:06:08.149Z,14.37
2017-10-18T11:08:35.811Z,13.73
2017-10-18T11:11:03.427Z,13.27
2017-10-18T11:13:31.860Z,13.67
2017-10-18T11:15:59.482Z,14.77
2017-10-18T11:18:27.916Z,12.60
2017-10-18T11:20:55.538Z,13.33
2017-10-18T11:23:24.164Z,13.07
2017-10-18T11:25:51.785Z,13.67
2017-10-18T11:28:19.460Z,12.57
2017-10-18T11:30:47.079Z,11.93
2017-10-18T11:33:16.350Z,13.33
2017-10-18T11:35:43.975Z,12.70
2017-10-18T11:38:11.644Z,13.07
2017-10-18T11:40:39.273Z,13.50
2017-10-18T11:43:07.034Z,13.07
2017-10-18T11:45:34.655Z,12.70
2017-10-18T11:48:02.903Z,12.60
2017-10-18T11:50:30.617Z,11.20
2017-10-18T11:52:58.283Z,10.70
2017-10-18T11:55:25.900Z,10.97
2017-10-18T11:57:53.571Z,10.63
2017-10-18T12:00:21.197Z,10.60
2017-10-18T12:02:49.630Z,12.23
2017-10-18T12:05:17.306Z,12.23
2017-10-18T12:07:44.929Z,10.60
2017-10-18T12:10:12.594Z,11.43
2017-10-18T12:12:40.211Z,11.13
2017-10-18T12:15:08.656Z,11.53
2017-10-18T12:17:36.276Z,11.10
2017-10-18T12:20:04.912Z,10.07
2017-10-18T12:22:32.527Z,9.60
2017-10-18T12:25:00.961Z,10.73
2017-10-18T12:27:28.625Z,10.67
2017-10-18T12:29:56.394Z,9.53
2017-10-18T12:32:24.009Z,8.50
2017-10-18T12:34:51.695Z,8.17
2017-10-18T12:37:19.349Z,7.20
2017-10-18T12:39:46.970Z,7.80
2017-10-18T12:42:15.392Z,6.90
2017-10-18T12:44:43.020Z,7.33
2017-10-18T12:47:11.442Z,8.30
2017-10-18T12:49:39.053Z,7.30
2017-10-18T12:52:07.491Z,6.50
2017-10-18T12:54:35.109Z,6.53
2017-10-18T12:57:02.811Z,6.20
2017-10-18T12:59:30.482Z,6.83
2017-10-18T13:01:58.148Z,7.07
2017-10-18T13:04:25.764Z,7.10
2017-10-18T13:06:53.428Z,6.87
2017-10-18T13:09:21.225Z,6.60
2017-10-18T13:11:48.888Z,7.70
2017-10-18T13:14:16.653Z,6.70
2017-10-18T13:16:44.321Z,6.97
2017-10-18T13:19:12.182Z,6.23
2017-10-18T13:21:39.854Z,7.13
2017-10-18T13:24:07.479Z,6.70
2017-10-18T13:26:35.152Z,6.50
2017-10-18T13:29:02.770Z,6.40
2017-10-18T13:31:31.333Z,7.37
2017-10-18T13:33:58.951Z,7.07
2017-10-18T13:36:26.580Z,6.90
2017-10-18T13:38:55.011Z,6.90
2017-10-18T13:41:22.629Z,6.53
2017-10-18T13:43:51.063Z,6.60
2017-10-18T13:46:18.682Z,6.33
2017-10-18T13:48:47.124Z,5.40
2017-10-18T13:51:16.246Z,6.33
2017-10-18T13:53:44.691Z,5.30
2017-10-18T13:56:12.304Z,4.83
2017-10-18T13:58:39.969Z,4.77
2017-10-18T14:01:07.581Z,5.90
2017-10-18T14:03:35.245Z,5.70
2017-10-18T14:06:02.858Z,6.57
2017-10-18T14:08:30.533Z,6.00
2017-10-18T14:10:58.155Z,6.43
2017-10-18T14:13:26.548Z,5.40
2017-10-18T14:15:54.973Z,6.77
2017-10-18T14:18:22.585Z,6.17
2017-10-18T14:20:51.012Z,6.80
2017-10-18T14:23:18.672Z,6.30
2017-10-18T14:25:46.338Z,6.63
2017-10-18T14:28:13.968Z,6.27
2017-10-18T14:30:41.763Z,6.10
2017-10-18T14:33:09.382Z,7.23
2017-10-18T14:35:37.842Z,7.13
2017-10-18T14:38:06.244Z,7.07
2017-10-18T14:40:34.686Z,6.60
2017-10-18T14:43:02.306Z,6.37
2017-10-18T14:45:29.972Z,5.80
2017-10-18T14:47:57.602Z,5.13
2017-10-18T14:50:26.032Z,5.37
2017-10-18T14:52:53.707Z,4.40
2017-10-18T14:55:21.329Z,4.67
2017-10-18T14:57:48.996Z,4.70
2017-10-18T15:00:16.611Z,4.57
2017-10-18T15:02:44.288Z,6.00
2017-10-18T15:05:12.726Z,5.87
2017-10-18T15:07:40.386Z,5.37
2017-10-18T15:10:08.001Z,5.17
2017-10-18T15:12:36.429Z,4.27
2017-10-18T15:15:04.045Z,5.27
2017-10-18T15:17:32.477Z,4.67
2017-10-18T15:20:00.094Z,5.00
2017-10-18T15:22:28.520Z,5.70
2017-10-18T15:24:56.137Z,5.07
2017-10-18T15:27:23.805Z,5.03
2017-10-18T15:29:51.518Z,5.10
2017-10-18T15:32:19.213Z,4.60
2017-10-18T15:34:47.603Z,4.57
2017-10-18T15:37:15.232Z,5.43
2017-10-18T15:39:42.892Z,4.43
2017-10-18T15:42:11.277Z,5.03
2017-10-18T15:44:39.114Z,5.20
2017-10-18T15:47:06.788Z,5.17
2017-10-18T15:49:34.489Z,5.03
2017-10-18T15:52:02.865Z,5.53
2017-10-18T15:54:31.289Z,6.50
2017-10-18T15:56:58.900Z,5.63
2017-10-18T15:59:27.153Z,5.17
2017-10-18T16:01:54.772Z,5.30
2017-10-18T16:04:22.430Z,5.30
2017-10-18T16:06:50.088Z,4.90
2017-10-18T16:09:17.762Z,5.10
2017-10-18T16:11:45.382Z,5.37
2017-10-18T16:14:14.425Z,5.77
2017-10-18T16:16:42.047Z,5.47
2017-10-18T16:19:10.481Z,5.37
2017-10-18T16:21:38.095Z,5.57
2017-10-18T16:24:06.542Z,4.87
2017-10-18T16:26:34.164Z,4.67
2017-10-18T16:29:01.864Z,5.33
2017-10-18T16:31:29.484Z,4.60
2017-10-18T16:33:57.199Z,6.23
2017-10-18T16:36:25.587Z,4.40
2017-10-18T16:38:53.293Z,5.33
2017-10-18T16:41:20.995Z,4.73
2017-10-18T16:43:48.660Z,5.87
2017-10-18T16:46:16.280Z,4.90
2017-10-18T16:48:43.988Z,6.07
2017-10-18T16:51:11.608Z,6.23
2017-10-18T16:53:39.273Z,6.40
2017-10-18T16:56:07.086Z,5.60
2017-10-18T16:58:34.754Z,6.13
2017-10-18T17:01:02.375Z,5.90
2017-10-18T17:03:30.041Z,5.20
2017-10-18T17:08:30.946Z,5.80
2017-10-18T17:10:59.402Z,5.80
2017-10-18T17:13:27.028Z,5.20
2017-10-18T17:15:55.058Z,7.10
2017-10-18T17:18:22.713Z,6.03
2017-10-18T17:20:51.262Z,6.17
2017-10-18T17:23:19.044Z,7.20
2017-10-18T17:25:46.704Z,6.30
2017-10-18T17:28:14.324Z,6.40
2017-10-18T17:30:41.996Z,5.80
2017-10-18T17:33:09.667Z,5.83
2017-10-18T17:35:37.353Z,6.47
2017-10-18T17:38:04.978Z,6.27
2017-10-18T17:40:32.635Z,6.43
2017-10-18T17:43:00.298Z,6.33
2017-10-18T17:45:27.920Z,6.60
2017-10-18T17:47:55.583Z,6.07
2017-10-18T17:50:23.242Z,5.57
2017-10-18T17:52:53.326Z,6.17
2017-10-18T17:55:20.979Z,7.23
2017-10-18T17:57:48.759Z,6.77
2017-10-18T18:00:16.386Z,7.27
2017-10-18T18:02:44.063Z,6.80
2017-10-18T18:05:14.992Z,7.57
2017-10-18T18:07:43.045Z,6.40
2017-10-18T18:10:10.678Z,7.10
2017-10-18T18:12:39.657Z,7.50
2017-10-18T18:15:08.473Z,8.10
2017-10-18T18:20:34.993Z,8.70
2017-10-18T18:23:02.613Z,9.23
2017-10-18T18:25:31.057Z,8.93
2017-10-18T18:27:58.904Z,8.30
2017-10-18T18:30:26.685Z,6.80
2017-10-18T18:32:54.307Z,6.53
2017-10-18T18:35:21.968Z,8.73
2017-10-18T18:37:49.596Z,7.50
2017-10-18T18:40:17.255Z,7.40
2017-10-18T18:42:44.872Z,8.83
2017-10-18T18:45:12.539Z,7.33
2017-10-18T18:47:40.154Z,7.60
2017-10-18T18:50:08.596Z,9.13
2017-10-18T18:52:36.219Z,12.37
2017-10-18T18:55:03.843Z,16.20
2017-10-18T18:57:32.282Z,22.20
2017-10-18T18:59:59.902Z,19.83
2017-10-18T19:02:28.339Z,17.50
2017-10-18T19:04:55.953Z,15.50
2017-10-18T19:07:24.384Z,14.30
2017-10-18T19:09:52.008Z,14.00
2017-10-18T19:12:19.670Z,13.63
2017-10-18T19:14:47.292Z,13.67
2017-10-18T19:17:16.470Z,13.30
2017-10-18T19:19:44.106Z,11.53
2017-10-18T19:22:11.772Z,11.53
2017-10-18T19:24:39.390Z,11.23
2017-10-18T19:27:07.821Z,9.73
2017-10-18T19:29:35.439Z,9.90
2017-10-18T19:32:03.869Z,8.97
2017-10-18T19:34:31.500Z,10.60
2017-10-18T19:36:59.163Z,8.23
2017-10-18T19:39:26.777Z,8.50
2017-10-18T19:41:55.944Z,8.17
2017-10-18T19:44:23.564Z,8.20
2017-10-18T19:46:51.997Z,8.10
2017-10-18T19:49:19.615Z,7.03
2017-10-18T19:51:47.276Z,8.10
2017-10-18T19:54:14.899Z,7.40
2017-10-18T19:56:42.559Z,8.10
2017-10-18T19:59:10.180Z,7.83
2017-10-18T20:01:37.842Z,8.23
2017-10-18T20:04:05.463Z,7.90
2017-10-18T20:06:33.893Z,7.80
2017-10-18T20:09:01.512Z,9.53
2017-10-18T20:11:29.940Z,8.60
2017-10-18T20:13:57.556Z,10.83
2017-10-18T20:16:25.986Z,9.70
2017-10-18T20:18:53.619Z,10.93
2017-10-18T20:21:21.286Z,15.07
2017-10-18T20:23:48.961Z,19.50
2017-10-18T20:26:16.624Z,23.13
2017-10-18T20:28:44.244Z,21.17
2017-10-18T20:31:12.686Z,20.13
2017-10-18T20:33:40.317Z,18.20
2017-10-18T20:36:08.694Z,16.27
2017-10-18T20:38:36.913Z,14.80
2017-10-18T20:41:04.536Z,13.20
2017-10-18T20:43:32.239Z,9.30
2017-10-18T20:46:00.633Z,12.37
2017-10-18T20:48:29.073Z,8.63
2017-10-18T20:50:56.753Z,7.77
2017-10-18T20:53:24.416Z,8.00
2017-10-18T20:55:52.028Z,8.07
2017-10-18T20:58:19.700Z,11.23
2017-10-18T21:00:47.326Z,11.73
2017-10-18T21:03:15.756Z,12.07
2017-10-18T21:05:43.448Z,11.03
2017-10-18T21:08:11.212Z,11.07
2017-10-18T21:10:38.831Z,11.27
2017-10-18T21:13:07.048Z,10.93
2017-10-18T21:15:34.671Z,12.03
2017-10-18T21:18:02.334Z,11.23
2017-10-18T21:20:29.955Z,11.03
2017-10-18T21:22:58.390Z,12.20
2017-10-18T21:25:26.013Z,11.20
2017-10-18T21:27:54.440Z,11.87
2017-10-18T21:30:22.064Z,12.67
2017-10-18T21:32:50.688Z,12.83
2017-10-18T21:35:18.316Z,11.30
2017-10-18T21:37:45.987Z,11.90
2017-10-18T21:40:14.097Z,11.90
2017-10-18T21:42:41.760Z,11.40
2017-10-18T21:45:09.881Z,10.73
2017-10-18T21:47:38.315Z,11.93
2017-10-18T21:50:05.980Z,12.27
2017-10-18T21:52:33.650Z,12.33
2017-10-18T21:55:01.272Z,12.43
2017-10-18T21:57:29.136Z,12.77
2017-10-18T21:59:56.765Z,11.80
2017-10-18T22:02:25.172Z,10.80
2017-10-18T22:04:52.984Z,8.13
2017-10-18T22:07:20.610Z,11.40
2017-10-18T22:09:48.275Z,10.77
2017-10-18T22:12:15.896Z,11.00
2017-10-18T22:14:44.331Z,11.97
2017-10-18T22:17:11.948Z,10.67
2017-10-18T22:19:40.383Z,10.77
2017-10-18T22:22:08.020Z,12.20
2017-10-18T22:24:35.687Z,11.57
2017-10-18T22:27:03.372Z,13.53
2017-10-18T22:29:31.048Z,11.27
2017-10-18T22:31:58.676Z,10.70
2017-10-18T22:34:26.310Z,10.60
2017-10-18T22:36:54.024Z,11.10
2017-10-18T22:39:22.379Z,11.63
2017-10-18T22:41:50.046Z,12.00
2017-10-18T22:44:17.663Z,11.10
2017-10-18T22:46:46.092Z,12.23
2017-10-18T22:49:13.867Z,11.93
2017-10-18T22:51:41.536Z,13.90
2017-10-18T22:54:09.154Z,14.43
2017-10-18T22:56:36.820Z,12.90
2017-10-18T22:59:04.445Z,11.07
2017-10-18T23:01:33.035Z,12.60
2017-10-18T23:04:01.929Z,12.33
2017-10-18T23:06:30.360Z,11.87
2017-10-18T23:08:58.588Z,10.53
2017-10-18T23:11:26.267Z,10.90
2017-10-18T23:13:53.889Z,10.33
2017-10-18T23:16:21.556Z,10.20
2017-10-18T23:18:49.949Z,11.43
2017-10-18T23:21:18.380Z,10.90
2017-10-18T23:23:46.059Z,10.77
2017-10-18T23:26:13.764Z,10.97
2017-10-18T23:28:41.389Z,10.10
2017-10-18T23:31:09.056Z,10.30
2017-10-18T23:33:36.676Z,10.57
2017-10-18T23:36:04.355Z,10.73
2017-10-18T23:38:32.137Z,11.90
2017-10-18T23:40:59.815Z,10.70
2017-10-18T23:43:28.037Z,11.13
2017-10-18T23:45:55.713Z,11.07
2017-10-18T23:48:23.339Z,11.50
2017-10-18T23:50:51.778Z,10.87
2017-10-18T23:53:19.399Z,11.40
2017-10-18T23:55:47.067Z,11.00
2017-10-18T23:58:14.691Z,12.00
